Главная страница
METAR-TAF:

METAR-TAF

Аэропорты :

Ульяновск-Восточный

Ульяновск, Россия

широта: 54-21N, долгота: 048-23E, высота над уровнем моря: 77 м

Текущие метеонаблюдения

Эта сводка был подготовлена 53 минут назад, в 02:00 UTC
Ветер 8 Узел от западный-юго-западный
Температура 15°C
Влажность 63%
Давление 1006 hPa
Видимость: 8000 м

METAR: UWLW 210200Z 25004MPS 8000 NSC 15/08 Q1006 R02/CLRD60 NOSIG RMK QFE748

Время: 05:53 (02:53 UTC)

Прогноз

Эта сводка был подготовлена 1 час и 8 минут назад, в 01:45 UTC
Прогноз действительный с 21-го 03 UTC до 22-го 03 UTC
Ветер 12 Узел от западный с порывами до 23 Узел
Видимость: 8000 м
Отдельные облака на высоте 3300 фута
временами
С 21-го 03 UTC до 21-го 06 UTC
Ветер 25 Узел от западный-юго-западный
Рассеянная облачность на высоте 2000 фута, Кучево-дождевые.
временами
С 21-го 06 UTC до 21-го 15 UTC
Ветер 29 Узел от западно-северо-западный

TAF: UWLW 210145Z 2103/2203 28006G12MPS 8000 SCT033 TEMPO 2103/2106 24013MPS BKN020CB TEMPO 2106/2115 30015MPS

Метеонаблюдения и прогнозы для более 4000 аэропортов (сводки METAR и TAF).

Имеющиеся станции представлены на карте желтыми и красными точками.

Чтобы увидеть название станции, наведите на нее мышь.

Затем щелкните, чтобы увидеть метеонаблюдения и метеопрогнозы.

Управление картой: чтобы увеличить масштаб, щелкните зеленые кнопки с черным крестиком; чтобы уменьшить масштаб, щелкните зеленую кнопку с тире; для просмотра соседних карт щелкайте зеленые стрелки.


METAR-TAF: